createdAt,value
2023-03-06T00:02:37.805Z,0.4
2023-03-06T00:05:37.848Z,0.4
2023-03-06T00:08:37.810Z,0.4
2023-03-06T00:11:37.824Z,0.4
2023-03-06T00:14:37.815Z,0.4
2023-03-06T00:17:37.814Z,0.4
2023-03-06T00:20:37.818Z,0.4
2023-03-06T00:23:37.844Z,0.4
2023-03-06T00:26:37.845Z,0.4
2023-03-06T00:29:37.830Z,0.4
2023-03-06T00:32:37.905Z,0.3
2023-03-06T00:35:37.839Z,0.3
2023-03-06T00:38:37.832Z,0.3
2023-03-06T00:41:37.875Z,0.3
2023-03-06T00:44:37.846Z,0.3
2023-03-06T00:47:37.852Z,0.3
2023-03-06T00:50:37.848Z,0.3
2023-03-06T00:53:37.854Z,0.3
2023-03-06T00:56:37.893Z,0.2
2023-03-06T00:59:37.881Z,0.2
2023-03-06T01:02:37.864Z,0.2
2023-03-06T01:05:37.875Z,0.2
2023-03-06T01:08:37.887Z,0.2
2023-03-06T01:11:37.891Z,0.1
2023-03-06T01:14:37.882Z,0.2
2023-03-06T01:17:37.926Z,0.1
2023-03-06T01:20:37.891Z,0.2
2023-03-06T01:23:37.893Z,0.1
2023-03-06T01:26:37.907Z,0.1
2023-03-06T01:29:37.902Z,0.1
2023-03-06T01:32:37.949Z,0.1
2023-03-06T01:35:38.044Z,0.2
2023-03-06T01:38:37.923Z,0.1
2023-03-06T01:41:37.949Z,0.2
2023-03-06T01:44:37.938Z,0.2
2023-03-06T01:47:37.970Z,0.2
2023-03-06T01:50:37.944Z,0.2
2023-03-06T01:53:37.974Z,0.2
2023-03-06T01:56:37.971Z,0.2
2023-03-06T01:59:37.968Z,0.3
2023-03-06T02:02:38.065Z,0.3
2023-03-06T02:05:37.973Z,0.3
2023-03-06T02:08:37.982Z,0.3
2023-03-06T02:11:38.109Z,0.3
2023-03-06T02:14:37.991Z,0.3
2023-03-06T02:17:38.004Z,0.3
2023-03-06T02:20:38.021Z,0.2
2023-03-06T02:23:38.005Z,0.3
2023-03-06T02:26:38.023Z,0.3
2023-03-06T02:29:38.043Z,0.3
2023-03-06T02:32:38.185Z,0.3
2023-03-06T02:35:38.100Z,0.3
2023-03-06T02:38:38.038Z,0.3
2023-03-06T02:41:38.055Z,0.3
2023-03-06T02:44:38.040Z,0.3
2023-03-06T02:47:38.079Z,0.3
2023-03-06T02:50:38.048Z,0.3
2023-03-06T02:53:38.053Z,0.3
2023-03-06T02:56:38.093Z,0.3
2023-03-06T02:59:38.068Z,0.3
2023-03-06T03:02:38.088Z,0.3
2023-03-06T03:05:38.095Z,0.4
2023-03-06T03:08:38.075Z,0.4
2023-03-06T03:11:38.093Z,0.4
2023-03-06T03:14:38.096Z,0.4
2023-03-06T03:17:38.098Z,0.4
2023-03-06T03:20:38.099Z,0.4
2023-03-06T03:23:38.133Z,0.4
2023-03-06T03:26:38.117Z,0.5
2023-03-06T03:29:38.114Z,0.4
2023-03-06T03:32:38.158Z,0.4
2023-03-06T03:35:38.148Z,0.4
2023-03-06T03:38:38.137Z,0.4
2023-03-06T03:41:38.187Z,0.4
2023-03-06T03:44:38.152Z,0.4
2023-03-06T03:47:38.174Z,0.4
2023-03-06T03:50:38.165Z,0.4
2023-03-06T03:53:38.174Z,0.4
2023-03-06T03:56:38.186Z,0.4
2023-03-06T03:59:38.201Z,0.4
2023-03-06T04:02:38.199Z,0.4
2023-03-06T04:05:38.187Z,0.4
2023-03-06T04:08:38.192Z,0.4
2023-03-06T04:11:38.211Z,0.4
2023-03-06T04:14:38.198Z,0.4
2023-03-06T04:17:38.269Z,0.4
2023-03-06T04:20:38.216Z,0.4
2023-03-06T04:23:38.237Z,0.4
2023-03-06T04:26:38.249Z,0.4
2023-03-06T04:29:38.242Z,0.2
2023-03-06T04:32:38.339Z,0
2023-03-06T04:35:38.325Z,-0.1
2023-03-06T04:38:38.280Z,-0.1
2023-03-06T04:41:38.280Z,-0.2
2023-03-06T04:44:38.281Z,-0.2
2023-03-06T04:47:38.298Z,-0.3
2023-03-06T04:50:38.298Z,-0.4
2023-03-06T04:53:38.327Z,-0.4
2023-03-06T04:56:38.322Z,-0.4
2023-03-06T04:59:39.274Z,-0.5
2023-03-06T05:02:38.349Z,-0.5
2023-03-06T05:05:38.338Z,-0.6
2023-03-06T05:08:38.345Z,-0.6
2023-03-06T05:11:38.377Z,-0.6
2023-03-06T05:14:38.376Z,-0.7
2023-03-06T05:17:38.372Z,-0.7
2023-03-06T05:20:38.371Z,-0.6
2023-03-06T05:23:38.414Z,-0.7
2023-03-06T05:26:38.388Z,-0.7
2023-03-06T05:29:38.408Z,-0.7
2023-03-06T05:32:38.434Z,-0.7
2023-03-06T05:35:38.416Z,-0.7
2023-03-06T05:38:38.411Z,-0.7
2023-03-06T05:41:38.423Z,-0.7
2023-03-06T05:44:38.415Z,-0.7
2023-03-06T05:47:38.464Z,-0.7
2023-03-06T05:50:38.424Z,-0.7
2023-03-06T05:53:38.444Z,-0.7
2023-03-06T05:56:38.443Z,-0.7
2023-03-06T05:59:38.436Z,-0.7
2023-03-06T06:02:38.549Z,-0.7
2023-03-06T06:05:38.470Z,-0.7
2023-03-06T06:08:38.447Z,-0.7
2023-03-06T06:11:38.466Z,-0.7
2023-03-06T06:14:38.453Z,-0.7
2023-03-06T06:17:38.467Z,-0.7
2023-03-06T06:20:38.470Z,-0.6
2023-03-06T06:23:38.495Z,-0.7
2023-03-06T06:26:38.489Z,-0.7
2023-03-06T06:29:38.484Z,-0.7
2023-03-06T06:32:38.522Z,-0.7
2023-03-06T06:35:38.526Z,-0.7
2023-03-06T06:38:38.495Z,-0.7
2023-03-06T06:41:55.176Z,-0.6
2023-03-06T06:44:38.499Z,-0.7
2023-03-06T06:47:38.627Z,-0.6
2023-03-06T06:50:38.511Z,-0.6
2023-03-06T06:53:38.518Z,-0.6
2023-03-06T06:56:38.538Z,-0.6
2023-03-06T06:59:38.555Z,-0.6
2023-03-06T07:02:38.558Z,-0.5
2023-03-06T07:05:38.545Z,-0.5
2023-03-06T07:08:38.537Z,-0.5
2023-03-06T07:11:38.558Z,-0.5
2023-03-06T07:14:38.547Z,-0.5
2023-03-06T07:17:38.714Z,-0.5
2023-03-06T07:20:38.696Z,-0.4
2023-03-06T07:23:38.717Z,-0.3
2023-03-06T07:26:38.756Z,-0.3
2023-03-06T07:29:38.586Z,-0.3
2023-03-06T07:32:38.602Z,-0.2
2023-03-06T07:35:38.629Z,-0.2
2023-03-06T07:38:38.580Z,-0.2
2023-03-06T07:41:38.595Z,-0.3
2023-03-06T07:44:38.600Z,-0.3
2023-03-06T07:47:38.605Z,-0.3
2023-03-06T07:50:38.599Z,-0.2
2023-03-06T07:53:38.679Z,-0.1
2023-03-06T07:56:38.621Z,-0.1
2023-03-06T07:59:38.624Z,0
2023-03-06T08:02:38.665Z,0
2023-03-06T08:05:38.633Z,0
2023-03-06T08:08:38.634Z,0
2023-03-06T08:11:38.738Z,-0.1
2023-03-06T08:14:38.633Z,-0.1
2023-03-06T08:17:38.669Z,-0.1
2023-03-06T08:20:38.656Z,-0.1
2023-03-06T08:23:38.675Z,-0.1
2023-03-06T08:26:38.679Z,-0.1
2023-03-06T08:29:38.697Z,0
2023-03-06T08:32:38.741Z,-0.1
2023-03-06T08:35:38.688Z,-0.1
2023-03-06T08:38:38.671Z,-0.1
2023-03-06T08:41:38.698Z,-0.1
2023-03-06T08:44:38.685Z,-0.2
2023-03-06T08:47:38.776Z,-0.3
2023-03-06T08:50:38.694Z,-0.3
2023-03-06T08:53:43.735Z,-0.3
2023-03-06T08:56:38.712Z,-0.3
2023-03-06T08:59:38.703Z,-0.3
2023-03-06T09:02:38.747Z,-0.4
2023-03-06T09:05:38.750Z,-0.4
2023-03-06T09:08:38.725Z,-0.3
2023-03-06T09:11:38.733Z,-0.3
2023-03-06T09:14:38.734Z,-0.2
2023-03-06T09:17:38.764Z,-0.1
2023-03-06T09:20:38.735Z,0
2023-03-06T09:23:38.772Z,0.1
2023-03-06T09:26:45.854Z,0.1
2023-03-06T09:29:38.760Z,0.1
2023-03-06T09:32:38.800Z,0.1
2023-03-06T09:35:38.810Z,0
2023-03-06T09:38:38.768Z,0.1
2023-03-06T09:41:38.813Z,0.1
2023-03-06T09:44:38.774Z,0
2023-03-06T09:47:38.799Z,-0.1
2023-03-06T09:50:38.788Z,-0.1
2023-03-06T09:53:38.785Z,-0.2
2023-03-06T09:56:38.802Z,-0.2
2023-03-06T09:59:38.907Z,-0.3
2023-03-06T10:02:38.903Z,-0.3
2023-03-06T10:05:38.807Z,-0.2
2023-03-06T10:08:38.802Z,-0.1
2023-03-06T10:11:38.817Z,0.1
2023-03-06T10:14:38.816Z,0.2
2023-03-06T10:17:40.129Z,0.2
2023-03-06T10:20:38.823Z,0.3
2023-03-06T10:23:38.822Z,0.2
2023-03-06T10:26:38.907Z,0.2
2023-03-06T10:29:39.274Z,0.2
2023-03-06T10:32:48.151Z,0.2
2023-03-06T10:35:39.018Z,0.3
2023-03-06T10:38:38.839Z,0.3
2023-03-06T10:41:38.853Z,0.3
2023-03-06T10:44:38.852Z,0.3
2023-03-06T10:47:38.869Z,0.3
2023-03-06T10:50:38.863Z,0.4
2023-03-06T10:53:38.896Z,0.4
2023-03-06T10:56:38.896Z,0.4
2023-03-06T10:59:38.875Z,0.4
2023-03-06T11:02:38.911Z,0.6
2023-03-06T11:05:38.879Z,0.7
2023-03-06T11:08:38.883Z,0.8
2023-03-06T11:11:38.932Z,0.8
2023-03-06T11:14:38.889Z,0.8
2023-03-06T11:17:38.907Z,0.8
2023-03-06T11:20:50.830Z,0.8
2023-03-06T11:23:38.913Z,0.8
2023-03-06T11:26:38.914Z,0.7
2023-03-06T11:29:39.137Z,0.8
2023-03-06T11:32:38.983Z,0.8
2023-03-06T11:35:38.929Z,0.8
2023-03-06T11:38:38.920Z,0.9
2023-03-06T11:41:38.987Z,0.7
2023-03-06T11:44:38.920Z,0.5
2023-03-06T11:47:39.040Z,0.6
2023-03-06T11:50:38.934Z,0.5
2023-03-06T11:53:38.946Z,0.6
2023-03-06T11:56:38.956Z,0.7
2023-03-06T11:59:38.946Z,0.9
2023-03-06T12:02:38.966Z,0.9
2023-03-06T12:05:39.076Z,0.9
2023-03-06T12:08:38.957Z,1
2023-03-06T12:11:38.976Z,1
2023-03-06T12:14:38.969Z,1
2023-03-06T12:17:38.980Z,1
2023-03-06T12:20:38.974Z,1.1
2023-03-06T12:23:39.013Z,1.2
2023-03-06T12:26:38.994Z,0.7
2023-03-06T12:29:38.989Z,0.8
2023-03-06T12:32:39.050Z,0.9
2023-03-06T12:35:39.027Z,0.8
2023-03-06T12:38:39.001Z,0.7
2023-03-06T12:41:39.034Z,0.6
2023-03-06T12:44:39.007Z,0.5
2023-03-06T12:47:39.019Z,0.5
2023-03-06T12:50:39.024Z,0.5
2023-03-06T12:53:39.018Z,0.4
2023-03-06T12:56:39.035Z,0.3
2023-03-06T12:59:39.143Z,0.2
2023-03-06T13:02:39.086Z,-0.1
2023-03-06T13:05:39.149Z,-0.2
2023-03-06T13:08:39.041Z,-0.3
2023-03-06T13:11:39.067Z,-0.3
2023-03-06T13:14:42.225Z,-0.4
2023-03-06T13:17:39.089Z,-0.4
2023-03-06T13:20:39.046Z,-0.4
2023-03-06T13:23:39.066Z,-0.9
2023-03-06T13:26:39.063Z,-0.8
2023-03-06T13:29:39.053Z,-0.4
2023-03-06T13:32:39.087Z,-0.2
2023-03-06T13:35:39.102Z,-0.3
2023-03-06T13:38:39.058Z,-0.4
2023-03-06T13:41:39.068Z,-0.4
2023-03-06T13:44:39.072Z,-0.2
2023-03-06T13:47:59.305Z,-0.3
2023-03-06T13:50:39.059Z,-0.3
2023-03-06T13:53:39.082Z,-0.2
2023-03-06T13:56:39.087Z,0.1
2023-03-06T13:59:39.065Z,-0.2
2023-03-06T14:02:39.149Z,-0.1
2023-03-06T14:05:39.085Z,-0.2
2023-03-06T14:08:39.094Z,-0.3
2023-03-06T14:11:39.158Z,-0.4
2023-03-06T14:14:39.128Z,-0.3
2023-03-06T14:17:39.145Z,-0.1
2023-03-06T14:20:39.138Z,-0.1
2023-03-06T14:23:39.152Z,-0.2
2023-03-06T14:26:39.165Z,-0.4
2023-03-06T14:29:39.197Z,-0.4
2023-03-06T14:32:39.230Z,-0.4
2023-03-06T14:35:39.174Z,-0.5
2023-03-06T14:38:39.193Z,-1.2
2023-03-06T14:41:39.200Z,-1
2023-03-06T14:44:39.184Z,-1
2023-03-06T14:47:39.213Z,-1.3
2023-03-06T14:50:40.949Z,-1.1
2023-03-06T14:53:39.218Z,-1.3
2023-03-06T14:56:39.210Z,-1.4
2023-03-06T14:59:39.197Z,-1.4
2023-03-06T15:02:39.276Z,-1.4
2023-03-06T15:05:39.234Z,-1.4
2023-03-06T15:08:39.206Z,-1.4
2023-03-06T15:11:39.223Z,-1.3
2023-03-06T15:14:39.226Z,-1.2
2023-03-06T15:17:39.210Z,-1.2
2023-03-06T15:20:39.214Z,-1.2
2023-03-06T15:23:39.258Z,-1.2
2023-03-06T15:26:39.296Z,-1.2
2023-03-06T15:29:39.221Z,-1.2
2023-03-06T15:32:39.285Z,-1.2
2023-03-06T15:35:39.260Z,-1.2
2023-03-06T15:38:39.226Z,-1.2
2023-03-06T15:41:39.266Z,-1.2
2023-03-06T15:44:39.228Z,-1.2
2023-03-06T15:47:39.227Z,-1.2
2023-03-06T15:50:39.238Z,-1.2
2023-03-06T15:53:39.234Z,-1.2
2023-03-06T15:56:39.248Z,-1.2
2023-03-06T15:59:39.271Z,-1.1
2023-03-06T16:02:39.238Z,-1.2
2023-03-06T16:05:39.235Z,-1.2
2023-03-06T16:08:39.240Z,-1.3
2023-03-06T16:11:43.874Z,-1.3
2023-03-06T16:14:39.244Z,-1.3
2023-03-06T16:17:39.270Z,-1.3
2023-03-06T16:20:39.237Z,-1.3
2023-03-06T16:23:39.247Z,-1.3
2023-03-06T16:26:39.272Z,-1.4
2023-03-06T16:29:39.243Z,-1.4
2023-03-06T16:32:39.314Z,-1.3
2023-03-06T16:35:39.358Z,-1.4
2023-03-06T16:38:39.248Z,-1.4
2023-03-06T16:41:39.252Z,-1.5
2023-03-06T16:44:39.244Z,-1.6
2023-03-06T16:47:39.255Z,-1.6
2023-03-06T16:50:39.251Z,-1.7
2023-03-06T16:53:39.283Z,-1.7
2023-03-06T16:56:39.263Z,-1.7
2023-03-06T16:59:39.255Z,-1.7
2023-03-06T17:02:39.324Z,-1.7
2023-03-06T17:05:39.262Z,-1.6
2023-03-06T17:08:39.262Z,-1.5
2023-03-06T17:11:39.307Z,-1.5
2023-03-06T17:14:39.272Z,-1.5
2023-03-06T17:17:39.275Z,-1.6
2023-03-06T17:20:39.274Z,-1.6
2023-03-06T17:23:39.273Z,-1.6
2023-03-06T17:26:39.282Z,-1.6
2023-03-06T17:29:39.321Z,-1.6
2023-03-06T17:32:39.334Z,-1.6
2023-03-06T17:35:39.289Z,-1.6
2023-03-06T17:38:39.289Z,-1.7
2023-03-06T17:41:39.288Z,-1.7
2023-03-06T17:44:39.284Z,-1.8
2023-03-06T17:47:39.307Z,-1.8
2023-03-06T17:50:39.281Z,-1.8
2023-03-06T17:53:39.289Z,-1.8
2023-03-06T17:56:39.298Z,-1.8
2023-03-06T17:59:39.287Z,-1.8
2023-03-06T18:02:39.291Z,-1.8
2023-03-06T18:05:39.318Z,-1.8
2023-03-06T18:08:39.293Z,-1.8
2023-03-06T18:11:39.304Z,-1.8
2023-03-06T18:14:39.295Z,-1.7
2023-03-06T18:17:39.299Z,-1.8
2023-03-06T18:20:39.299Z,-1.8
2023-03-06T18:23:39.364Z,-1.8
2023-03-06T18:26:39.313Z,-1.8
2023-03-06T18:29:39.295Z,-1.8
2023-03-06T18:32:39.385Z,-1.9
2023-03-06T18:35:39.316Z,-1.9
2023-03-06T18:38:39.298Z,-1.9
2023-03-06T18:41:39.344Z,-1.9
2023-03-06T18:44:39.306Z,-1.9
2023-03-06T18:47:39.309Z,-1.9
2023-03-06T18:50:39.306Z,-2
2023-03-06T18:53:39.313Z,-2.1
2023-03-06T18:56:39.320Z,-2.1
2023-03-06T18:59:39.342Z,-2.2
2023-03-06T19:02:39.318Z,-2.2
2023-03-06T19:05:39.322Z,-2.2
2023-03-06T19:08:39.325Z,-2.2
2023-03-06T19:11:39.333Z,-2.2
2023-03-06T19:14:39.333Z,-2.3
2023-03-06T19:17:39.355Z,-2.2
2023-03-06T19:20:39.338Z,-2.3
2023-03-06T19:23:39.348Z,-2.2
2023-03-06T19:26:39.353Z,-2.2
2023-03-06T19:29:39.373Z,-2.3
2023-03-06T19:32:39.391Z,-2.3
2023-03-06T19:35:39.443Z,-2.3
2023-03-06T19:38:39.348Z,-2.3
2023-03-06T19:41:39.382Z,-2.4
2023-03-06T19:44:39.355Z,-2.4
2023-03-06T19:47:39.358Z,-2.4
2023-03-06T19:50:39.361Z,-2.4
2023-03-06T19:53:39.389Z,-2.3
2023-03-06T19:56:39.377Z,-2.3
2023-03-06T19:59:39.360Z,-2.3
2023-03-06T20:02:39.364Z,-2.3
2023-03-06T20:05:39.365Z,-2.3
2023-03-06T20:08:39.371Z,-2.4
2023-03-06T20:11:39.426Z,-2.4
2023-03-06T20:14:39.369Z,-2.4
2023-03-06T20:17:39.368Z,-2.4
2023-03-06T20:20:39.366Z,-2.4
2023-03-06T20:23:39.374Z,-2.5
2023-03-06T20:26:39.389Z,-2.5
2023-03-06T20:29:39.404Z,-2.5
2023-03-06T20:32:39.410Z,-2.5
2023-03-06T20:35:39.396Z,-2.5
2023-03-06T20:38:39.390Z,-2.6
2023-03-06T20:41:39.402Z,-2.6
2023-03-06T20:44:39.392Z,-2.6
2023-03-06T20:47:39.425Z,-2.7
2023-03-06T20:50:39.411Z,-2.8
2023-03-06T20:53:39.404Z,-2.9
2023-03-06T20:56:39.417Z,-2.9
2023-03-06T20:59:39.403Z,-2.9
2023-03-06T21:02:39.415Z,-2.9
2023-03-06T21:05:39.436Z,-3
2023-03-06T21:08:39.418Z,-3
2023-03-06T21:11:39.433Z,-3
2023-03-06T21:14:39.415Z,-2.9
2023-03-06T21:17:39.418Z,-2.9
2023-03-06T21:20:39.425Z,-2.9
2023-03-06T21:23:39.454Z,-2.8
2023-03-06T21:26:39.442Z,-2.8
2023-03-06T21:29:39.423Z,-2.7
2023-03-06T21:32:39.466Z,-2.6
2023-03-06T21:35:39.444Z,-2.6
2023-03-06T21:38:39.439Z,-2.6
2023-03-06T21:41:39.474Z,-2.6
2023-03-06T21:44:39.433Z,-2.6
2023-03-06T21:47:39.432Z,-2.5
2023-03-06T21:50:39.448Z,-2.6
2023-03-06T21:53:39.436Z,-2.5
2023-03-06T21:56:39.453Z,-2.5
2023-03-06T21:59:39.468Z,-2.4
2023-03-06T22:02:39.439Z,-2.3
2023-03-06T22:05:39.438Z,-2.3
2023-03-06T22:08:39.458Z,-2.2
2023-03-06T22:11:39.456Z,-2.1
2023-03-06T22:14:39.446Z,-2
2023-03-06T22:17:39.486Z,-2
2023-03-06T22:20:39.455Z,-1.9
2023-03-06T22:23:39.453Z,-1.9
2023-03-06T22:26:39.463Z,-1.8
2023-03-06T22:29:39.462Z,-1.8
2023-03-06T22:32:39.487Z,-1.7
2023-03-06T22:35:39.535Z,-1.8
2023-03-06T22:38:39.450Z,-1.8
2023-03-06T22:41:39.468Z,-1.8
2023-03-06T22:44:39.454Z,-1.8
2023-03-06T22:47:39.468Z,-1.8
2023-03-06T22:50:39.460Z,-1.7
2023-03-06T22:53:39.494Z,-1.7
2023-03-06T22:56:39.472Z,-1.7
2023-03-06T22:59:39.468Z,-1.7
2023-03-06T23:02:39.468Z,-1.6
2023-03-06T23:05:39.471Z,-1.7
2023-03-06T23:08:39.479Z,-1.7
2023-03-06T23:11:39.518Z,-1.7
2023-03-06T23:14:39.525Z,-1.6
2023-03-06T23:17:39.488Z,-1.6
2023-03-06T23:20:39.495Z,-1.7
2023-03-06T23:23:39.497Z,-1.7
2023-03-06T23:26:39.540Z,-1.7
2023-03-06T23:29:39.537Z,-1.7
2023-03-06T23:32:39.568Z,-1.7
2023-03-06T23:35:39.576Z,-1.6
2023-03-06T23:38:39.503Z,-1.6
2023-03-06T23:41:39.521Z,-1.5
2023-03-06T23:44:39.514Z,-1.5
2023-03-06T23:47:39.550Z,-1.3
2023-03-06T23:50:39.517Z,-1.3
2023-03-06T23:53:39.517Z,-1.2
2023-03-06T23:56:39.534Z,-1.1
2023-03-06T23:59:39.532Z,-1.1
